Time;durP1;ratioP1;P1;durP2;ratioP2;P2;SDS_P1;SDS_P2;PMS_P1;PMS_P2;Temp;Humidity;BMP_temperature;BMP_pressure;BME280_temperature;BME280_humidity;BME280_pressure;Samples;Min_cycle;Max_cycle;Signal;HPM_P1;HPM_P2
2022/05/02 00:00:28;;;;;;;17.77;16.13;;;9.80;99.90;;;;;;4949880;28;20231;-65
2022/05/02 00:02:53;;;;;;;18.50;16.63;;;9.80;99.90;;;;;;4951773;28;20721;-66
2022/05/02 00:05:19;;;;;;;18.17;16.53;;;9.80;99.90;;;;;;4950869;28;20472;-66
2022/05/02 00:07:45;;;;;;;17.37;15.70;;;9.70;99.90;;;;;;4951119;28;20201;-65
2022/05/02 00:10:11;;;;;;;17.10;15.53;;;9.60;99.90;;;;;;4950543;28;20235;-66
2022/05/02 00:12:37;;;;;;;17.27;15.87;;;9.50;99.90;;;;;;4949058;29;20181;-66
2022/05/02 00:15:03;;;;;;;17.57;15.80;;;9.50;99.90;;;;;;4950661;28;20455;-65
2022/05/02 00:20:13;;;;;;;17.50;15.40;;;9.60;99.90;;;;;;4950265;28;20451;-66
2022/05/02 00:22:40;;;;;;;18.13;16.40;;;9.60;99.90;;;;;;4950998;28;20441;-66
2022/05/02 00:25:06;;;;;;;16.23;14.50;;;9.50;99.90;;;;;;4950093;28;20352;-64
2022/05/02 00:27:31;;;;;;;18.20;16.30;;;9.50;99.90;;;;;;4950525;28;20974;-66
2022/05/02 00:29:57;;;;;;;19.00;17.10;;;9.50;99.90;;;;;;4949911;28;20520;-66
2022/05/02 00:32:22;;;;;;;17.37;15.67;;;9.50;99.90;;;;;;4950624;28;20217;-66
2022/05/02 00:34:48;;;;;;;18.33;16.60;;;9.50;99.90;;;;;;4950396;29;20188;-65
2022/05/02 00:37:15;;;;;;;17.23;15.63;;;9.50;99.90;;;;;;4951767;28;20220;-66
2022/05/02 00:39:41;;;;;;;16.67;15.07;;;9.40;99.90;;;;;;4949462;28;20267;-66
2022/05/02 00:42:07;;;;;;;17.73;16.10;;;9.30;99.90;;;;;;4949520;28;20488;-66
2022/05/02 00:44:32;;;;;;;18.57;16.70;;;9.30;99.90;;;;;;4951906;29;20199;-66
2022/05/02 00:46:58;;;;;;;17.53;15.83;;;9.30;99.90;;;;;;4950023;28;20181;-66
2022/05/02 00:49:23;;;;;;;19.60;17.60;;;9.30;99.90;;;;;;4950417;28;20386;-66
2022/05/02 00:51:49;;;;;;;17.77;16.03;;;9.20;99.90;;;;;;4950708;28;20675;-66
2022/05/02 00:54:14;;;;;;;18.77;16.97;;;9.20;99.90;;;;;;4951002;29;20189;-66
2022/05/02 00:56:41;;;;;;;18.23;16.20;;;9.20;99.90;;;;;;4950027;28;20263;-66
2022/05/02 00:59:09;;;;;;;17.93;16.03;;;9.00;99.90;;;;;;4949917;28;20614;-66
2022/05/02 01:01:34;;;;;;;18.63;16.93;;;8.90;99.90;;;;;;4957372;29;20527;-65
2022/05/02 01:04:00;;;;;;;19.93;18.03;;;8.90;99.90;;;;;;4957167;28;21023;-66
2022/05/02 01:09:10;;;;;;;20.20;17.40;;;9.00;99.90;;;;;;4956269;28;20187;-65
2022/05/02 01:11:36;;;;;;;17.00;15.50;;;9.00;99.90;;;;;;4957799;29;20440;-66
2022/05/02 01:14:01;;;;;;;18.30;15.63;;;9.00;99.90;;;;;;4957056;28;20181;-66
2022/05/02 01:16:28;;;;;;;19.03;17.13;;;9.00;99.90;;;;;;4957013;28;20436;-66
2022/05/02 01:18:57;;;;;;;18.37;16.67;;;8.90;99.90;;;;;;4956288;28;20240;-65
2022/05/02 01:21:29;;;;;;;16.20;14.60;;;8.90;99.90;;;;;;4952931;28;20443;-66
2022/05/02 01:23:57;;;;;;;19.33;17.43;;;8.90;99.90;;;;;;4956731;28;20554;-67
2022/05/02 01:26:23;;;;;;;18.73;16.83;;;8.80;99.90;;;;;;4955189;28;20530;-65
2022/05/02 01:28:51;;;;;;;19.07;17.07;;;8.80;99.90;;;;;;4957243;28;20502;-64
2022/05/02 01:31:19;;;;;;;19.00;17.10;;;8.90;99.90;;;;;;4955736;28;20188;-65
2022/05/02 01:33:46;;;;;;;17.60;15.90;;;8.90;99.90;;;;;;4957048;28;20501;-66
2022/05/02 01:36:12;;;;;;;17.60;15.70;;;8.90;99.90;;;;;;4956400;28;20833;-66
2022/05/02 01:38:38;;;;;;;17.90;16.23;;;9.00;99.90;;;;;;4954528;28;20467;-64
2022/05/02 01:41:07;;;;;;;18.53;16.63;;;9.00;99.90;;;;;;4956815;28;20439;-65
2022/05/02 01:43:33;;;;;;;16.83;15.13;;;9.00;99.90;;;;;;4957256;28;20439;-66
2022/05/02 01:45:59;;;;;;;19.40;17.47;;;9.10;99.90;;;;;;4956129;28;21115;-66
2022/05/02 01:48:25;;;;;;;20.47;17.00;;;9.10;99.90;;;;;;4956256;28;20828;-65
2022/05/02 01:50:51;;;;;;;19.70;17.90;;;9.10;99.90;;;;;;4955379;28;20990;-66
2022/05/02 01:53:16;;;;;;;19.00;17.10;;;9.20;99.90;;;;;;4954350;28;20523;-65
2022/05/02 01:55:42;;;;;;;20.60;18.67;;;9.10;99.90;;;;;;4957000;29;20212;-66
2022/05/02 01:58:08;;;;;;;19.57;17.77;;;9.20;99.90;;;;;;4955325;28;20879;-66
2022/05/02 02:00:33;;;;;;;20.27;18.10;;;9.20;99.90;;;;;;4958986;28;20197;-65
2022/05/02 02:02:59;;;;;;;20.23;18.27;;;9.30;99.90;;;;;;4957231;28;20195;-66
2022/05/02 02:08:08;;;;;;;17.37;15.37;;;9.30;99.90;;;;;;4954283;28;20552;-65
2022/05/02 02:10:34;;;;;;;18.43;16.43;;;9.30;99.90;;;;;;4958345;28;20448;-66
2022/05/02 02:12:59;;;;;;;18.90;17.10;;;9.30;99.90;;;;;;4952597;29;20184;-66
2022/05/02 02:15:25;;;;;;;19.80;17.80;;;9.40;99.90;;;;;;4953527;28;20551;-66
2022/05/02 02:17:50;;;;;;;20.07;17.77;;;9.30;99.90;;;;;;4953665;28;20232;-66
2022/05/02 02:20:16;;;;;;;20.43;18.33;;;9.30;99.90;;;;;;4951131;29;20199;-64
2022/05/02 02:22:42;;;;;;;19.53;17.60;;;9.40;99.90;;;;;;4955049;28;20605;-66
2022/05/02 02:25:08;;;;;;;19.73;17.93;;;9.40;99.90;;;;;;4953682;29;20209;-66
2022/05/02 02:27:33;;;;;;;19.50;17.60;;;9.40;99.90;;;;;;4983128;23;20235;-74
2022/05/02 02:29:59;;;;;;;21.93;19.50;;;9.40;99.90;;;;;;4972797;28;20443;-71
2022/05/02 02:32:26;;;;;;;21.23;19.00;;;9.40;99.90;;;;;;4956602;28;20185;-74
2022/05/02 02:34:51;;;;;;;18.83;17.03;;;9.50;99.90;;;;;;4982184;28;20183;-71
2022/05/02 02:37:17;;;;;;;19.63;17.67;;;9.40;99.90;;;;;;4958004;28;20776;-71
2022/05/02 02:39:43;;;;;;;19.37;17.57;;;9.50;99.90;;;;;;4941104;28;20181;-72
2022/05/02 02:42:09;;;;;;;20.17;18.23;;;9.40;99.90;;;;;;4942042;28;20447;-74
2022/05/02 02:44:35;;;;;;;19.60;17.70;;;9.30;99.90;;;;;;4960342;28;21017;-72
2022/05/02 02:47:01;;;;;;;18.80;17.00;;;9.30;99.90;;;;;;4961078;28;20260;-71
2022/05/02 02:49:26;;;;;;;20.10;18.20;;;9.20;99.90;;;;;;4959985;28;20569;-72
2022/05/02 02:51:52;;;;;;;19.50;17.53;;;9.20;99.90;;;;;;4958082;28;20177;-75
2022/05/02 02:54:17;;;;;;;18.70;16.90;;;9.10;99.90;;;;;;4942830;28;20274;-72
2022/05/02 02:56:43;;;;;;;20.20;18.07;;;9.00;99.90;;;;;;4961349;28;20195;-71
2022/05/02 02:59:09;;;;;;;19.60;17.70;;;9.10;99.90;;;;;;4961685;28;20633;-71
2022/05/02 03:01:35;;;;;;;19.10;17.17;;;9.10;99.90;;;;;;4943517;28;20267;-74
2022/05/02 03:06:01;;;;;;;19.70;17.73;;;9.20;99.90;;;;;;4939723;28;20464;-72
2022/05/02 03:06:46;;;;;;;18.07;16.37;;;9.20;99.90;;;;;;4961254;28;20192;-71
2022/05/02 03:09:11;;;;;;;18.87;17.07;;;9.30;99.90;;;;;;4958313;28;20452;-72
2022/05/02 03:11:37;;;;;;;21.20;17.20;;;9.20;99.90;;;;;;4959626;28;20192;-74
2022/05/02 03:14:03;;;;;;;19.37;17.40;;;9.10;99.90;;;;;;4960869;28;20185;-71
2022/05/02 03:16:28;;;;;;;18.70;16.90;;;9.20;99.90;;;;;;4943245;28;20176;-72
2022/05/02 03:18:54;;;;;;;18.23;16.60;;;9.30;99.90;;;;;;4940673;28;20213;-73
2022/05/02 03:21:19;;;;;;;19.70;17.63;;;9.30;99.90;;;;;;4958626;28;20685;-71
2022/05/02 03:23:45;;;;;;;18.97;17.27;;;9.30;99.90;;;;;;4942430;28;20217;-72
2022/05/02 03:26:10;;;;;;;20.37;18.10;;;9.30;99.90;;;;;;4940927;28;20278;-74
2022/05/02 03:28:36;;;;;;;19.73;17.77;;;9.30;99.90;;;;;;4959136;28;20275;-72
2022/05/02 03:31:01;;;;;;;20.40;18.27;;;9.30;99.90;;;;;;4939288;29;20169;-71
2022/05/02 03:33:27;;;;;;;20.77;18.77;;;9.30;99.90;;;;;;4951271;28;20600;-72
2022/05/02 03:35:52;;;;;;;19.30;17.23;;;9.30;99.90;;;;;;4954239;28;20181;-71
2022/05/02 03:38:18;;;;;;;19.53;17.50;;;9.30;99.90;;;;;;4956461;28;20224;-72
2022/05/02 03:40:43;;;;;;;17.70;16.00;;;9.30;99.90;;;;;;4956456;28;20185;-72
2022/05/02 03:43:09;;;;;;;18.90;16.97;;;9.40;99.90;;;;;;4954610;28;20177;-71
2022/05/02 03:45:34;;;;;;;18.10;16.40;;;9.40;99.90;;;;;;4958513;28;20283;-72
2022/05/02 03:48:00;;;;;;;20.10;18.10;;;9.40;99.90;;;;;;4953873;28;20193;-72
2022/05/02 03:50:25;;;;;;;19.47;17.73;;;9.30;99.90;;;;;;4946593;29;20192;-71
2022/05/02 03:52:51;;;;;;;18.10;16.20;;;9.30;99.90;;;;;;4952790;28;20680;-72
2022/05/02 03:55:16;;;;;;;18.70;17.00;;;9.20;99.90;;;;;;4955701;28;20191;-73
2022/05/02 03:57:42;;;;;;;19.50;17.40;;;9.20;99.90;;;;;;4955684;28;20208;-72
2022/05/02 04:00:08;;;;;;;19.17;17.00;;;9.30;99.90;;;;;;4955024;28;20334;-72
2022/05/02 04:02:34;;;;;;;20.10;18.20;;;9.40;99.90;;;;;;4956312;28;20183;-74
2022/05/02 04:05:00;;;;;;;21.20;17.47;;;9.50;99.90;;;;;;4958292;28;20457;-73
2022/05/02 04:07:25;;;;;;;20.67;18.57;;;9.50;99.90;;;;;;4957799;28;20501;-72
2022/05/02 04:09:51;;;;;;;20.20;18.10;;;9.60;99.90;;;;;;4957138;28;20172;-73
2022/05/02 04:12:16;;;;;;;21.00;18.90;;;9.60;99.90;;;;;;4958836;28;20181;-73
2022/05/02 04:14:42;;;;;;;19.10;17.20;;;9.60;99.90;;;;;;4954971;28;20191;-72
2022/05/02 04:17:09;;;;;;;18.17;16.30;;;9.60;99.90;;;;;;4951285;28;20181;-73
2022/05/02 04:19:35;;;;;;;19.73;17.30;;;9.50;99.90;;;;;;4958962;28;20176;-72
2022/05/02 04:22:00;;;;;;;19.00;16.97;;;9.70;99.90;;;;;;4958501;28;20440;-73
2022/05/02 04:24:25;;;;;;;18.13;16.20;;;9.70;99.90;;;;;;4959537;28;20215;-73
2022/05/02 04:26:51;;;;;;;20.23;17.70;;;9.70;99.90;;;;;;4953594;28;20196;-74
2022/05/02 04:29:17;;;;;;;22.93;20.50;;;9.80;99.90;;;;;;4955372;28;20220;-73
2022/05/02 04:31:42;;;;;;;21.90;19.03;;;9.80;99.90;;;;;;4957584;28;20227;-73
2022/05/02 04:34:08;;;;;;;22.47;17.97;;;9.90;99.90;;;;;;4957969;28;20179;-72
2022/05/02 04:36:33;;;;;;;19.83;17.73;;;10.00;99.90;;;;;;4947834;28;20271;-72
2022/05/02 04:38:59;;;;;;;18.53;16.80;;;10.10;99.90;;;;;;4952584;28;20283;-73
2022/05/02 04:41:24;;;;;;;18.00;16.27;;;10.20;99.90;;;;;;4955257;28;20556;-72
2022/05/02 04:43:51;;;;;;;20.97;18.30;;;10.30;99.90;;;;;;4939160;28;20203;-73
2022/05/02 04:46:19;;;;;;;19.30;17.30;;;10.40;99.90;;;;;;4959049;28;20271;-72
2022/05/02 04:48:45;;;;;;;19.20;17.30;;;10.60;99.90;;;;;;4954004;28;20977;-75
2022/05/02 04:51:10;;;;;;;19.07;17.33;;;10.70;99.90;;;;;;4954919;28;20432;-74
2022/05/02 04:53:36;;;;;;;16.77;15.27;;;10.90;99.90;;;;;;4953851;28;20220;-74
2022/05/02 04:56:02;;;;;;;19.87;17.93;;;11.00;99.90;;;;;;4963188;28;20188;-74
2022/05/02 04:58:28;;;;;;;17.50;16.00;;;11.10;99.90;;;;;;4954899;28;20263;-73
2022/05/02 05:00:53;;;;;;;17.73;16.10;;;11.10;99.90;;;;;;4953855;28;20211;-72
2022/05/02 05:03:21;;;;;;;18.17;16.50;;;11.10;99.90;;;;;;4940677;28;20176;-72
2022/05/02 05:05:47;;;;;;;21.63;16.00;;;11.00;99.90;;;;;;4955873;28;20569;-72
2022/05/02 05:08:14;;;;;;;19.93;18.10;;;11.00;99.90;;;;;;4956081;28;20463;-72
2022/05/02 05:10:53;;;;;;;18.77;17.07;;;11.00;99.90;;;;;;4951123;28;20179;-73
2022/05/02 05:13:22;;;;;;;17.30;15.60;;;11.10;99.90;;;;;;4955921;28;20511;-72
2022/05/02 05:16:21;;;;;;;18.50;16.80;;;11.20;99.90;;;;;;4954958;28;20433;-73
2022/05/02 05:19:14;;;;;;;18.80;16.90;;;11.30;99.90;;;;;;4951260;28;20460;-72
2022/05/02 05:22:07;;;;;;;18.83;17.03;;;11.30;99.90;;;;;;4954018;28;20560;-72
2022/05/02 05:24:48;;;;;;;17.57;15.77;;;11.50;99.90;;;;;;4954854;28;20456;-72
2022/05/02 05:27:35;;;;;;;18.77;17.07;;;11.70;99.90;;;;;;4951741;28;20537;-72
2022/05/02 05:30:06;;;;;;;17.57;16.07;;;11.70;99.90;;;;;;4954813;28;20443;-72
2022/05/02 05:32:56;;;;;;;19.80;18.10;;;11.80;99.90;;;;;;4953251;28;20467;-72
2022/05/02 05:35:46;;;;;;;19.17;17.30;;;11.90;99.90;;;;;;4953529;28;20514;-72
2022/05/02 05:38:54;;;;;;;20.27;18.27;;;12.00;99.90;;;;;;4944894;28;20491;-72
2022/05/02 05:41:37;;;;;;;20.87;18.67;;;12.10;99.90;;;;;;4952797;28;20964;-72
2022/05/02 05:44:48;;;;;;;19.47;17.57;;;12.30;99.90;;;;;;4954551;28;20548;-72
2022/05/02 05:47:29;;;;;;;19.97;18.30;;;12.50;99.90;;;;;;4940976;28;20511;-72
2022/05/02 05:50:24;;;;;;;19.70;17.87;;;12.70;99.90;;;;;;4958150;28;20444;-72
2022/05/02 05:53:04;;;;;;;20.77;18.70;;;12.90;99.90;;;;;;4959827;28;20934;-72
2022/05/02 05:55:43;;;;;;;20.77;18.90;;;13.00;99.90;;;;;;4962239;28;20526;-72
2022/05/02 05:58:28;;;;;;;23.80;21.27;;;13.10;99.90;;;;;;4958829;28;20471;-72
2022/05/02 06:01:11;;;;;;;23.33;20.90;;;13.20;99.90;;;;;;4955175;28;21805;-72
2022/05/02 06:03:51;;;;;;;22.77;20.70;;;13.20;99.90;;;;;;4955571;28;20452;-72
2022/05/02 06:06:16;;;;;;;24.73;22.30;;;13.40;99.90;;;;;;4956955;28;20953;-72
2022/05/02 06:08:44;;;;;;;21.47;19.20;;;13.30;99.90;;;;;;4955573;28;20460;-72
2022/05/02 06:11:11;;;;;;;22.80;20.47;;;13.40;99.90;;;;;;4958511;28;20196;-72
2022/05/02 06:13:38;;;;;;;23.27;20.90;;;13.60;99.90;;;;;;4958927;28;20439;-72
2022/05/02 06:18:51;;;;;;;22.40;20.20;;;13.80;99.90;;;;;;4958600;28;20987;-73
2022/05/02 06:21:22;;;;;;;23.10;20.90;;;14.00;99.90;;;;;;4957974;28;20568;-72
2022/05/02 06:23:51;;;;;;;24.50;22.20;;;14.20;99.90;;;;;;4941306;29;20479;-73
2022/05/02 06:26:20;;;;;;;23.83;21.37;;;14.30;99.90;;;;;;4943217;28;20478;-72
2022/05/02 06:28:49;;;;;;;25.07;22.57;;;14.40;99.90;;;;;;4957632;28;20526;-73
2022/05/02 06:31:26;;;;;;;27.00;24.50;;;14.50;99.90;;;;;;4961848;28;20436;-72
2022/05/02 06:33:52;;;;;;;23.10;20.70;;;14.50;99.90;;;;;;4954378;28;20898;-73
2022/05/02 06:36:59;;;;;;;23.57;21.37;;;14.60;99.90;;;;;;4923496;28;21308;-74
2022/05/02 06:39:43;;;;;;;21.17;19.00;;;14.70;99.90;;;;;;4936882;28;20546;-73
2022/05/02 06:42:24;;;;;;;22.17;19.93;;;15.00;99.90;;;;;;4952992;28;20508;-73
2022/05/02 06:45:29;;;;;;;22.60;20.37;;;15.10;99.90;;;;;;4946148;28;20993;-72
2022/05/02 06:48:09;;;;;;;21.50;19.47;;;15.20;99.90;;;;;;4955089;28;20479;-73
2022/05/02 06:50:38;;;;;;;27.30;24.60;;;15.00;99.90;;;;;;4962989;28;20815;-73
2022/05/02 06:53:47;;;;;;;25.13;22.80;;;15.00;99.90;;;;;;4962399;28;20859;-73
2022/05/02 06:56:32;;;;;;;21.80;19.67;;;15.30;99.90;;;;;;4950874;28;20492;-72
2022/05/02 06:59:07;;;;;;;21.67;19.67;;;15.60;99.90;;;;;;4950458;28;20456;-73
2022/05/02 07:01:52;;;;;;;22.23;20.13;;;15.80;99.90;;;;;;4949533;28;20431;-73
2022/05/02 07:04:43;;;;;;;22.83;20.73;;;15.80;99.90;;;;;;4950415;28;20499;-72
2022/05/02 07:07:39;;;;;;;22.73;20.53;;;15.80;99.90;;;;;;4955632;28;20471;-73
2022/05/02 07:10:13;;;;;;;22.83;20.63;;;15.80;99.90;;;;;;4952463;28;20531;-74
2022/05/02 07:12:47;;;;;;;23.47;21.27;;;16.00;99.90;;;;;;4961022;28;20868;-73
2022/05/02 07:15:22;;;;;;;25.57;21.60;;;16.10;99.90;;;;;;4942742;28;20448;-73
2022/05/02 07:18:04;;;;;;;23.40;21.20;;;16.30;99.90;;;;;;4954194;28;20456;-74
2022/05/02 07:20:42;;;;;;;22.00;20.10;;;16.30;99.90;;;;;;4955969;28;20432;-74
2022/05/02 07:23:21;;;;;;;21.47;19.60;;;16.40;99.90;;;;;;4953546;28;20441;-74
2022/05/02 07:25:53;;;;;;;23.97;21.57;;;16.60;99.90;;;;;;4947273;28;20478;-74
2022/05/02 07:28:46;;;;;;;22.63;20.70;;;16.80;99.90;;;;;;4956289;28;20495;-74
2022/05/02 07:31:14;;;;;;;22.57;20.47;;;16.90;99.90;;;;;;4957510;28;20437;-74
2022/05/02 07:33:40;;;;;;;22.90;20.80;;;17.10;99.90;;;;;;4957809;28;20444;-74
2022/05/02 07:36:06;;;;;;;21.90;19.80;;;17.10;99.90;;;;;;4953046;28;20436;-74
2022/05/02 07:38:34;;;;;;;24.00;21.87;;;17.00;99.90;;;;;;4939409;28;21040;-74
2022/05/02 07:41:22;;;;;;;23.93;21.73;;;17.20;99.90;;;;;;4956754;28;20439;-74
2022/05/02 07:43:50;;;;;;;22.03;20.00;;;17.00;99.90;;;;;;4956135;28;20447;-74
2022/05/02 07:46:20;;;;;;;22.97;20.60;;;17.30;99.90;;;;;;4947994;28;21062;-75
2022/05/02 07:48:48;;;;;;;21.53;19.73;;;17.60;99.90;;;;;;4959829;28;20830;-74
2022/05/02 07:51:14;;;;;;;21.53;19.37;;;17.70;99.90;;;;;;4952051;28;20468;-74
2022/05/02 07:53:43;;;;;;;23.30;21.20;;;17.80;99.90;;;;;;4954328;28;20449;-73
2022/05/02 07:56:10;;;;;;;24.90;22.60;;;17.90;99.90;;;;;;4950486;29;20412;-74
2022/05/02 07:58:41;;;;;;;24.10;21.97;;;18.10;99.90;;;;;;4951711;28;20551;-75
2022/05/02 08:01:07;;;;;;;23.37;21.13;;;18.30;99.90;;;;;;4935903;29;20554;-74
2022/05/02 08:03:33;;;;;;;22.27;20.17;;;18.10;99.90;;;;;;4952596;28;20440;-74
2022/05/02 08:06:22;;;;;;;22.17;20.27;;;18.30;99.90;;;;;;4951857;28;20450;-74
2022/05/02 08:09:02;;;;;;;23.63;21.53;;;18.60;99.90;;;;;;4954344;28;20718;-74
2022/05/02 08:11:53;;;;;;;22.87;21.03;;;18.50;99.90;;;;;;4957450;28;20445;-74
2022/05/02 08:15:00;;;;;;;20.87;18.83;;;18.50;99.90;;;;;;4918028;28;20487;-74
2022/05/02 08:17:41;;;;;;;22.40;20.27;;;18.80;99.90;;;;;;4948247;28;20506;-74
2022/05/02 08:20:27;;;;;;;22.13;20.07;;;18.90;99.90;;;;;;4958365;28;20454;-74
2022/05/02 08:29:40;;;;;;;20.57;18.73;;;20.20;99.90;;;;;;4931520;28;20493;-67
2022/05/02 08:32:07;;;;;;;20.40;18.70;;;20.70;99.90;;;;;;4955604;28;20953;-67
2022/05/02 08:34:38;;;;;;;20.90;19.10;;;20.90;99.90;;;;;;4950948;28;20484;-67
2022/05/02 08:37:40;;;;;;;21.53;19.53;;;20.70;99.80;;;;;;4954881;28;20487;-68
2022/05/02 08:40:24;;;;;;;21.23;19.10;;;20.20;99.90;;;;;;4954755;28;20980;-68
2022/05/02 08:43:17;;;;;;;20.20;18.43;;;19.90;99.90;;;;;;4945701;28;20870;-67
2022/05/02 08:46:03;;;;;;;20.60;18.77;;;19.90;99.90;;;;;;4946475;28;20522;-68
2022/05/02 08:49:32;;;;;;;22.13;20.20;;;20.20;99.90;;;;;;4946781;28;20464;-68
2022/05/02 08:52:19;;;;;;;18.93;17.60;;;20.30;99.90;;;;;;4946502;28;21016;-68
2022/05/02 08:55:16;;;;;;;19.50;17.70;;;20.10;99.90;;;;;;4884864;28;20444;-68
2022/05/02 08:57:41;;;;;;;20.27;18.70;;;19.90;99.80;;;;;;4948785;28;20835;-68
2022/05/02 09:00:16;;;;;;;23.13;21.03;;;19.80;99.40;;;;;;4946085;28;20440;-67
2022/05/02 09:03:00;;;;;;;19.73;18.10;;;19.80;99.50;;;;;;4948049;28;20184;-68
2022/05/02 09:05:45;;;;;;;20.40;18.70;;;19.50;99.90;;;;;;4945126;28;20526;-68
2022/05/02 09:08:22;;;;;;;19.33;17.40;;;19.50;99.90;;;;;;4950792;28;20471;-68
2022/05/02 09:11:08;;;;;;;20.40;18.67;;;20.10;99.90;;;;;;4947854;28;20499;-68
2022/05/02 09:13:58;;;;;;;18.63;16.93;;;20.00;99.10;;;;;;4945621;28;20432;-68
2022/05/02 09:16:30;;;;;;;18.53;17.03;;;19.90;99.40;;;;;;4946780;28;20485;-68
2022/05/02 09:19:14;;;;;;;17.40;16.00;;;20.30;98.80;;;;;;4948276;28;20460;-69
2022/05/02 09:22:18;;;;;;;16.60;15.00;;;21.00;96.10;;;;;;4950479;28;20448;-68
2022/05/02 09:25:03;;;;;;;16.23;14.87;;;21.70;95.00;;;;;;4946253;28;20507;-68
2022/05/02 09:27:54;;;;;;;14.67;13.50;;;22.00;94.00;;;;;;4952722;28;20464;-69
2022/05/02 09:30:38;;;;;;;11.67;10.57;;;22.30;92.40;;;;;;4949768;28;20436;-69
2022/05/02 09:33:28;;;;;;;10.97;10.17;;;22.60;90.20;;;;;;4945518;28;20444;-68
2022/05/02 09:36:07;;;;;;;12.20;11.20;;;22.50;87.10;;;;;;4947350;28;20504;-69
2022/05/02 09:39:12;;;;;;;13.67;12.53;;;22.30;87.10;;;;;;4950158;28;20459;-69
2022/05/02 09:42:05;;;;;;;14.27;13.17;;;22.80;84.60;;;;;;4951981;28;20451;-68
2022/05/02 09:51:01;;;;;;;13.40;12.30;;;23.00;86.10;;;;;;4951971;28;20972;-68
2022/05/02 09:53:52;;;;;;;15.40;14.10;;;23.20;83.40;;;;;;4947398;28;20475;-68
2022/05/02 09:56:38;;;;;;;11.10;10.30;;;23.00;82.70;;;;;;4930306;28;20452;-68
2022/05/02 09:59:23;;;;;;;11.17;10.17;;;22.60;79.10;;;;;;4950692;28;20464;-68
2022/05/02 10:01:57;;;;;;;10.03;9.03;;;22.70;80.70;;;;;;4954411;28;20475;-69
2022/05/02 10:04:32;;;;;;;11.00;10.00;;;23.70;77.10;;;;;;4950354;28;20856;-69
2022/05/02 10:07:11;;;;;;;12.30;11.20;;;24.10;76.60;;;;;;4959140;28;20419;-69
2022/05/02 10:09:48;;;;;;;11.67;10.87;;;24.30;75.50;;;;;;4945544;28;20470;-68
2022/05/02 10:12:30;;;;;;;14.40;13.17;;;23.40;76.60;;;;;;4957284;28;20437;-68
2022/05/02 10:15:15;;;;;;;14.90;11.97;;;22.50;77.20;;;;;;4956056;28;20813;-68
2022/05/02 10:18:05;;;;;;;13.43;12.40;;;21.30;80.20;;;;;;4955802;28;20464;-68
2022/05/02 10:21:10;;;;;;;12.77;11.77;;;20.70;81.30;;;;;;4963030;28;20930;-68
2022/05/02 10:23:38;;;;;;;11.23;10.33;;;21.70;80.80;;;;;;4928476;28;20446;-68
2022/05/02 10:26:29;;;;;;;10.20;9.37;;;22.50;78.40;;;;;;4952472;28;20452;-68
2022/05/02 10:29:32;;;;;;;11.63;10.63;;;24.80;74.80;;;;;;4918391;29;20477;-67
2022/05/02 10:32:27;;;;;;;11.17;10.27;;;26.50;66.60;;;;;;4954107;28;20798;-67
2022/05/02 10:34:57;;;;;;;12.00;11.10;;;27.10;63.50;;;;;;4946040;29;20436;-68
2022/05/02 10:37:32;;;;;;;11.20;10.30;;;27.80;59.10;;;;;;4955502;28;20523;-67
2022/05/02 10:40:08;;;;;;;12.30;11.40;;;27.60;57.80;;;;;;4947751;29;20424;-67
2022/05/02 10:42:34;;;;;;;12.40;11.30;;;26.00;58.10;;;;;;4955997;28;20435;-70
2022/05/02 10:45:03;;;;;;;12.17;11.27;;;24.30;61.50;;;;;;4948780;28;20511;-68
2022/05/02 10:47:38;;;;;;;12.77;11.63;;;23.50;64.10;;;;;;4955919;28;20444;-68
2022/05/02 10:50:20;;;;;;;11.80;10.90;;;22.60;65.00;;;;;;4958793;28;20432;-68
2022/05/02 10:52:46;;;;;;;9.33;8.63;;;22.20;68.30;;;;;;4955328;29;20784;-69
2022/05/02 10:55:18;;;;;;;12.47;11.60;;;23.80;64.50;;;;;;4952173;29;20455;-69
2022/05/02 10:57:53;;;;;;;11.40;10.60;;;25.30;60.30;;;;;;4955480;28;20193;-68
2022/05/02 11:00:19;;;;;;;10.80;10.00;;;26.60;58.90;;;;;;4955062;28;20435;-68
2022/05/02 11:03:24;;;;;;;12.40;11.50;;;27.50;55.60;;;;;;4958367;28;20607;-67
2022/05/02 11:05:58;;;;;;;10.10;9.20;;;25.80;56.40;;;;;;4948219;28;20463;-67
2022/05/02 11:08:37;;;;;;;10.77;9.97;;;26.00;57.60;;;;;;4953518;28;20463;-69
2022/05/02 11:11:07;;;;;;;10.13;9.33;;;27.50;54.40;;;;;;4955121;28;20801;-67
2022/05/02 11:13:46;;;;;;;9.90;9.20;;;28.50;55.40;;;;;;4953623;28;20499;-68
2022/05/02 11:16:52;;;;;;;9.63;8.73;;;29.00;51.50;;;;;;4952957;28;20439;-68
2022/05/02 11:22:41;;;;;;;10.20;9.40;;;26.80;51.90;;;;;;4954753;28;20527;-68
2022/05/02 11:25:26;;;;;;;9.60;8.93;;;26.90;53.00;;;;;;4947539;28;20825;-68
2022/05/02 11:28:16;;;;;;;9.60;8.87;;;26.20;53.90;;;;;;4953506;28;20848;-66
2022/05/02 11:30:50;;;;;;;8.47;7.90;;;26.10;52.70;;;;;;4956325;28;20432;-66
2022/05/02 11:33:41;;;;;;;8.43;7.87;;;27.10;51.60;;;;;;4953207;28;20443;-66
2022/05/02 11:36:10;;;;;;;8.97;8.30;;;29.20;49.50;;;;;;4950175;28;20444;-66
2022/05/02 11:38:59;;;;;;;8.63;8.13;;;29.30;48.10;;;;;;4952517;28;20499;-67
2022/05/02 11:41:28;;;;;;;8.10;7.60;;;27.80;49.50;;;;;;4957016;28;20451;-66
2022/05/02 11:44:08;;;;;;;7.90;7.40;;;28.20;51.40;;;;;;4953389;28;20790;-66
2022/05/02 11:46:43;;;;;;;9.87;9.07;;;29.50;49.50;;;;;;4953283;28;20468;-67
2022/05/02 11:49:40;;;;;;;8.20;7.60;;;29.70;48.40;;;;;;4954042;28;20495;-67
2022/05/02 11:52:14;;;;;;;8.20;7.60;;;29.20;48.70;;;;;;4948405;28;20448;-67
2022/05/02 11:54:40;;;;;;;9.93;9.23;;;27.80;49.30;;;;;;4952985;28;20901;-67
2022/05/02 11:57:26;;;;;;;8.30;7.70;;;26.10;51.10;;;;;;4958043;28;20531;-67
2022/05/02 12:00:06;;;;;;;9.53;8.73;;;25.00;52.60;;;;;;4961682;28;20189;-69
2022/05/02 12:02:41;;;;;;;8.90;8.30;;;24.10;53.90;;;;;;4959382;28;20447;-68
2022/05/02 12:05:18;;;;;;;8.97;8.37;;;23.20;54.70;;;;;;4952901;28;20904;-68
2022/05/02 12:07:56;;;;;;;8.27;7.50;;;22.70;55.80;;;;;;4956513;28;20502;-69
2022/05/02 12:10:36;;;;;;;10.57;9.67;;;23.10;56.10;;;;;;4958512;28;20447;-69
2022/05/02 12:13:04;;;;;;;9.20;8.50;;;25.30;53.40;;;;;;4942678;28;21041;-69
2022/05/02 12:15:29;;;;;;;8.87;8.17;;;28.50;49.70;;;;;;4953441;28;20470;-69
2022/05/02 12:17:59;;;;;;;8.43;7.83;;;30.50;46.90;;;;;;4957236;28;21060;-69
2022/05/02 12:20:26;;;;;;;9.17;8.30;;;29.80;46.20;;;;;;4957527;28;20189;-69
2022/05/02 12:23:16;;;;;;;8.50;7.90;;;28.40;47.10;;;;;;4957452;28;20443;-68
2022/05/02 12:25:56;;;;;;;9.67;8.97;;;28.40;48.60;;;;;;4943935;28;20569;-68
2022/05/02 12:28:47;;;;;;;8.13;7.53;;;29.70;46.50;;;;;;4949368;28;20490;-69
2022/05/02 12:31:16;;;;;;;7.50;6.93;;;32.70;44.10;;;;;;4947697;28;20503;-69
2022/05/02 12:33:46;;;;;;;7.10;6.50;;;33.10;42.10;;;;;;4954163;28;20483;-69
2022/05/02 12:36:14;;;;;;;8.03;7.53;;;33.50;41.00;;;;;;4949148;28;20481;-69
2022/05/02 12:38:43;;;;;;;8.00;7.40;;;31.70;41.60;;;;;;4947710;28;20475;-69
2022/05/02 12:41:11;;;;;;;7.27;6.77;;;31.60;42.60;;;;;;4947401;28;20441;-70
2022/05/02 12:43:44;;;;;;;7.83;7.23;;;32.80;40.90;;;;;;4949728;28;20440;-69
2022/05/02 12:46:10;;;;;;;6.97;6.47;;;31.80;39.90;;;;;;4944293;28;20437;-69
2022/05/02 12:48:41;;;;;;;8.30;7.70;;;29.90;41.60;;;;;;4946733;28;20461;-66
2022/05/02 12:51:16;;;;;;;8.87;8.27;;;28.20;42.50;;;;;;4950053;28;20455;-69
2022/05/02 12:56:26;;;;;;;8.80;8.20;;;27.50;44.90;;;;;;4947768;28;20486;-68
2022/05/02 13:01:45;;;;;;;7.27;6.77;;;28.00;45.20;;;;;;4950057;28;20903;-68
2022/05/02 13:04:18;;;;;;;7.43;6.93;;;29.10;44.50;;;;;;4945733;28;20832;-65
2022/05/02 13:06:45;;;;;;;6.83;6.43;;;28.50;43.90;;;;;;4946351;28;20441;-67
2022/05/02 13:09:16;;;;;;;6.70;6.20;;;26.10;45.90;;;;;;4948549;28;20510;-69
2022/05/02 13:11:42;;;;;;;6.37;5.97;;;25.20;46.90;;;;;;4948662;28;20526;-69
2022/05/02 13:14:18;;;;;;;7.40;6.80;;;25.20;48.90;;;;;;4948076;28;20435;-68
2022/05/02 13:16:45;;;;;;;7.80;7.20;;;25.70;48.80;;;;;;4946830;28;20531;-68
2022/05/02 13:19:11;;;;;;;6.67;6.17;;;25.60;48.00;;;;;;4947801;28;20885;-68
2022/05/02 13:21:37;;;;;;;7.03;6.63;;;25.10;48.60;;;;;;4950854;28;20490;-68
2022/05/02 13:24:12;;;;;;;6.43;6.03;;;25.50;48.70;;;;;;4944734;28;20444;-67
2022/05/02 13:27:02;;;;;;;7.47;6.87;;;26.00;47.60;;;;;;4945196;28;20459;-69
2022/05/02 13:30:02;;;;;;;6.50;6.00;;;25.70;48.20;;;;;;4948388;28;20475;-68
2022/05/02 13:32:34;;;;;;;6.00;5.60;;;25.80;49.20;;;;;;4948685;28;20857;-69
2022/05/02 13:35:14;;;;;;;7.23;6.83;;;26.50;48.80;;;;;;4944375;28;20534;-69
2022/05/02 13:37:58;;;;;;;7.40;6.90;;;26.60;48.40;;;;;;4949707;28;20518;-66
2022/05/02 13:40:39;;;;;;;5.80;5.40;;;27.00;48.70;;;;;;4944120;28;20972;-69